West Lafayette, IN

11:17 PM EDT on September 25, 2016 (GMT -0400)
Capilano | | Change Station

Elev 699 ft 40.48 °N, 86.97 °W | Updated 10 minutes ago

Clear
Clear
71.2 °F
Feels Like 71.2 °F
N
1.7
Wind Variable Wind from SE

Today
High -- | Low -- °F
--% Chance of Precip.
Yesterday
High -- | Low -- °F
Precip. -- in
Pressure 29.95 in
Visibility 10.0 miles
Clouds Clear
Dew Point 68 °F
Humidity 88%
Rainfall 0.00 in
Snow Depth Not available.
7:38 AM 7:39 PM
Waning Crescent, 22% visible
METAR KLAF 260254Z AUTO 00000KT 10SM CLR 21/20 A2996 RMK AO2 RAE0155 SLP141 P0000 60002 T02060200 58003
Pressure 29.95 in
Visibility 10.0 miles
Clouds Clear
Dew Point 68 °F
Humidity 88%
Rainfall 0.00 in
Snow Depth Not available.
7:38 AM 7:39 PM
Waning Crescent, 22% visible
METAR KLAF 260254Z AUTO 00000KT 10SM CLR 21/20 A2996 RMK AO2 RAE0155 SLP141 P0000 60002 T02060200 58003

10-Day Weather Forecast

Almanac

Astronomy

Sep. 25, 2016 Rise Set
Actual Time
Civil Twilight
Nautical Twilight
Astronomical Twilight
Moon
Length of Visible Light
Length of Day
Tomorrow will be .
, % of the Moon is Illuminated

Today's Extremes

State Highs State Lows

Community

WunderPhotos

Upload Photos

1,941,833 photos uploaded!

WunderBlog® & News

Nearby

Air Quality

  Air Quality AQ Index Pollutant
Not available.

Snow Depth

Station Depth Elevation

Earthquake Activity

City Distance Mag. Time & Date
Minimum magnitude displayed is 2.5.

Coastal Water Temperatures

Place Temperature

Stations

Nearby Weather Stations

Station Location Temp. Windchill Dew Point Humidity Wind Precip. Elev Updated Type
                   

Watches & Warnings

There are currently no watches in effect.